sensor_id;sensor_type;location;lat;lon;timestamp;P1;durP1;ratioP1;P2;durP2;ratioP2
438;SDS011;206;48.782;9.252;2022-09-29T00:01:08;7.07;;;6.10;;
438;SDS011;206;48.782;9.252;2022-09-29T00:03:34;7.47;;;5.80;;
438;SDS011;206;48.782;9.252;2022-09-29T00:06:00;7.80;;;6.03;;
438;SDS011;206;48.782;9.252;2022-09-29T00:08:27;5.40;;;4.37;;
438;SDS011;206;48.782;9.252;2022-09-29T00:10:54;7.60;;;4.87;;
438;SDS011;206;48.782;9.252;2022-09-29T00:13:19;4.73;;;4.47;;
438;SDS011;206;48.782;9.252;2022-09-29T00:15:53;6.10;;;4.77;;
438;SDS011;206;48.782;9.252;2022-09-29T00:18:23;4.53;;;4.23;;
438;SDS011;206;48.782;9.252;2022-09-29T00:21:23;5.13;;;3.90;;
438;SDS011;206;48.782;9.252;2022-09-29T00:23:43;4.10;;;3.43;;
438;SDS011;206;48.782;9.252;2022-09-29T00:26:10;3.90;;;3.60;;
438;SDS011;206;48.782;9.252;2022-09-29T00:28:38;5.03;;;3.47;;
438;SDS011;206;48.782;9.252;2022-09-29T00:31:06;4.10;;;3.83;;
438;SDS011;206;48.782;9.252;2022-09-29T00:33:35;4.07;;;3.90;;
438;SDS011;206;48.782;9.252;2022-09-29T00:36:02;7.63;;;4.73;;
438;SDS011;206;48.782;9.252;2022-09-29T00:38:30;5.80;;;4.07;;
438;SDS011;206;48.782;9.252;2022-09-29T00:40:57;4.80;;;4.23;;
438;SDS011;206;48.782;9.252;2022-09-29T00:43:24;12.20;;;4.70;;
438;SDS011;206;48.782;9.252;2022-09-29T00:46:41;4.67;;;4.00;;
438;SDS011;206;48.782;9.252;2022-09-29T00:49:13;5.13;;;4.10;;
438;SDS011;206;48.782;9.252;2022-09-29T00:51:53;5.33;;;4.80;;
438;SDS011;206;48.782;9.252;2022-09-29T00:54:19;7.70;;;5.83;;
438;SDS011;206;48.782;9.252;2022-09-29T00:56:46;9.70;;;6.10;;
438;SDS011;206;48.782;9.252;2022-09-29T00:59:17;9.93;;;6.67;;
438;SDS011;206;48.782;9.252;2022-09-29T01:01:46;7.90;;;6.80;;
438;SDS011;206;48.782;9.252;2022-09-29T01:04:13;11.80;;;7.67;;
438;SDS011;206;48.782;9.252;2022-09-29T01:06:44;9.63;;;7.63;;
438;SDS011;206;48.782;9.252;2022-09-29T01:09:13;7.83;;;6.70;;
438;SDS011;206;48.782;9.252;2022-09-29T01:11:42;8.90;;;6.80;;
438;SDS011;206;48.782;9.252;2022-09-29T01:14:08;7.67;;;6.47;;
438;SDS011;206;48.782;9.252;2022-09-29T01:16:35;8.73;;;5.70;;
438;SDS011;206;48.782;9.252;2022-09-29T01:19:15;7.83;;;6.67;;
438;SDS011;206;48.782;9.252;2022-09-29T01:24:31;7.33;;;6.03;;
438;SDS011;206;48.782;9.252;2022-09-29T01:30:07;7.03;;;6.63;;
438;SDS011;206;48.782;9.252;2022-09-29T01:38:36;8.30;;;5.73;;
438;SDS011;206;48.782;9.252;2022-09-29T01:44:04;10.20;;;6.07;;
438;SDS011;206;48.782;9.252;2022-09-29T01:46:51;7.57;;;5.10;;
438;SDS011;206;48.782;9.252;2022-09-29T01:49:32;5.93;;;5.63;;
438;SDS011;206;48.782;9.252;2022-09-29T01:52:05;9.03;;;5.13;;
438;SDS011;206;48.782;9.252;2022-09-29T01:54:56;5.37;;;5.10;;
438;SDS011;206;48.782;9.252;2022-09-29T01:57:42;6.87;;;5.70;;
438;SDS011;206;48.782;9.252;2022-09-29T02:00:21;15.60;;;5.13;;
438;SDS011;206;48.782;9.252;2022-09-29T02:08:10;7.53;;;5.40;;
438;SDS011;206;48.782;9.252;2022-09-29T02:11:07;8.57;;;6.57;;
438;SDS011;206;48.782;9.252;2022-09-29T02:13:36;6.23;;;5.90;;
438;SDS011;206;48.782;9.252;2022-09-29T02:16:08;11.40;;;6.60;;
438;SDS011;206;48.782;9.252;2022-09-29T02:18:44;9.20;;;5.87;;
438;SDS011;206;48.782;9.252;2022-09-29T02:21:16;12.87;;;6.53;;
438;SDS011;206;48.782;9.252;2022-09-29T02:23:42;10.40;;;5.60;;
438;SDS011;206;48.782;9.252;2022-09-29T02:26:08;8.30;;;6.10;;
438;SDS011;206;48.782;9.252;2022-09-29T02:28:35;8.87;;;6.20;;
438;SDS011;206;48.782;9.252;2022-09-29T02:31:01;7.50;;;6.40;;
438;SDS011;206;48.782;9.252;2022-09-29T02:33:27;6.60;;;5.60;;
438;SDS011;206;48.782;9.252;2022-09-29T02:35:55;9.63;;;5.97;;
438;SDS011;206;48.782;9.252;2022-09-29T02:38:39;8.97;;;6.00;;
438;SDS011;206;48.782;9.252;2022-09-29T02:41:49;6.10;;;5.53;;
438;SDS011;206;48.782;9.252;2022-09-29T02:47:56;10.60;;;6.47;;
438;SDS011;206;48.782;9.252;2022-09-29T02:50:42;7.13;;;5.33;;
438;SDS011;206;48.782;9.252;2022-09-29T02:53:20;8.30;;;6.60;;
438;SDS011;206;48.782;9.252;2022-09-29T02:58:46;8.77;;;5.97;;
438;SDS011;206;48.782;9.252;2022-09-29T03:01:17;8.63;;;5.50;;
438;SDS011;206;48.782;9.252;2022-09-29T03:03:43;8.10;;;5.83;;
438;SDS011;206;48.782;9.252;2022-09-29T03:06:09;6.60;;;5.90;;
438;SDS011;206;48.782;9.252;2022-09-29T03:08:36;8.23;;;6.27;;
438;SDS011;206;48.782;9.252;2022-09-29T03:11:01;7.60;;;6.57;;
438;SDS011;206;48.782;9.252;2022-09-29T03:13:27;10.30;;;6.57;;
438;SDS011;206;48.782;9.252;2022-09-29T03:15:53;9.10;;;5.03;;
438;SDS011;206;48.782;9.252;2022-09-29T03:18:18;9.97;;;6.63;;
438;SDS011;206;48.782;9.252;2022-09-29T03:20:46;12.00;;;8.63;;
438;SDS011;206;48.782;9.252;2022-09-29T03:23:12;15.80;;;7.70;;
438;SDS011;206;48.782;9.252;2022-09-29T03:25:37;8.57;;;6.70;;
438;SDS011;206;48.782;9.252;2022-09-29T03:28:03;9.90;;;7.53;;
438;SDS011;206;48.782;9.252;2022-09-29T03:30:28;15.50;;;9.67;;
438;SDS011;206;48.782;9.252;2022-09-29T03:32:54;9.70;;;8.13;;
438;SDS011;206;48.782;9.252;2022-09-29T03:35:20;12.73;;;8.43;;
438;SDS011;206;48.782;9.252;2022-09-29T03:37:45;14.00;;;8.40;;
438;SDS011;206;48.782;9.252;2022-09-29T03:40:11;18.03;;;8.90;;
438;SDS011;206;48.782;9.252;2022-09-29T03:42:36;14.70;;;9.87;;
438;SDS011;206;48.782;9.252;2022-09-29T03:45:02;15.00;;;8.90;;
438;SDS011;206;48.782;9.252;2022-09-29T03:47:28;9.73;;;7.00;;
438;SDS011;206;48.782;9.252;2022-09-29T03:49:54;8.50;;;8.00;;
438;SDS011;206;48.782;9.252;2022-09-29T03:52:19;8.10;;;6.50;;
438;SDS011;206;48.782;9.252;2022-09-29T03:54:45;16.10;;;8.50;;
438;SDS011;206;48.782;9.252;2022-09-29T03:57:10;7.90;;;6.30;;
438;SDS011;206;48.782;9.252;2022-09-29T03:59:36;10.70;;;7.57;;
438;SDS011;206;48.782;9.252;2022-09-29T04:02:02;10.40;;;8.23;;
438;SDS011;206;48.782;9.252;2022-09-29T04:04:28;17.43;;;8.50;;
438;SDS011;206;48.782;9.252;2022-09-29T04:06:53;9.27;;;7.10;;
438;SDS011;206;48.782;9.252;2022-09-29T04:09:19;9.33;;;6.50;;
438;SDS011;206;48.782;9.252;2022-09-29T04:11:44;12.97;;;8.33;;
438;SDS011;206;48.782;9.252;2022-09-29T04:14:10;11.93;;;8.03;;
438;SDS011;206;48.782;9.252;2022-09-29T04:16:36;10.67;;;7.30;;
438;SDS011;206;48.782;9.252;2022-09-29T04:19:01;14.07;;;7.40;;
438;SDS011;206;48.782;9.252;2022-09-29T04:21:27;11.50;;;9.60;;
438;SDS011;206;48.782;9.252;2022-09-29T04:23:53;12.37;;;9.53;;
438;SDS011;206;48.782;9.252;2022-09-29T04:26:18;9.10;;;8.60;;
438;SDS011;206;48.782;9.252;2022-09-29T04:28:46;10.77;;;9.00;;
438;SDS011;206;48.782;9.252;2022-09-29T04:31:12;10.03;;;8.50;;
438;SDS011;206;48.782;9.252;2022-09-29T04:33:38;12.47;;;7.93;;
438;SDS011;206;48.782;9.252;2022-09-29T04:36:04;10.40;;;8.50;;
438;SDS011;206;48.782;9.252;2022-09-29T04:38:29;8.80;;;7.43;;
438;SDS011;206;48.782;9.252;2022-09-29T04:40:55;10.93;;;7.20;;
438;SDS011;206;48.782;9.252;2022-09-29T04:43:21;10.67;;;6.87;;
438;SDS011;206;48.782;9.252;2022-09-29T04:45:47;9.07;;;7.13;;
438;SDS011;206;48.782;9.252;2022-09-29T04:48:12;9.67;;;7.40;;
438;SDS011;206;48.782;9.252;2022-09-29T04:50:38;9.33;;;8.43;;
438;SDS011;206;48.782;9.252;2022-09-29T04:53:04;11.23;;;9.67;;
438;SDS011;206;48.782;9.252;2022-09-29T04:55:30;11.57;;;9.10;;
438;SDS011;206;48.782;9.252;2022-09-29T04:57:56;10.13;;;7.97;;
438;SDS011;206;48.782;9.252;2022-09-29T05:00:21;9.27;;;8.17;;
438;SDS011;206;48.782;9.252;2022-09-29T05:02:47;11.47;;;7.60;;
438;SDS011;206;48.782;9.252;2022-09-29T05:05:12;9.33;;;6.80;;
438;SDS011;206;48.782;9.252;2022-09-29T05:07:38;7.47;;;6.63;;
438;SDS011;206;48.782;9.252;2022-09-29T05:10:05;12.20;;;9.20;;
438;SDS011;206;48.782;9.252;2022-09-29T05:12:32;7.03;;;6.20;;
438;SDS011;206;48.782;9.252;2022-09-29T05:14:57;6.43;;;5.30;;
438;SDS011;206;48.782;9.252;2022-09-29T05:17:23;12.30;;;5.80;;
438;SDS011;206;48.782;9.252;2022-09-29T05:19:48;11.00;;;6.73;;
438;SDS011;206;48.782;9.252;2022-09-29T05:22:14;5.90;;;4.67;;
438;SDS011;206;48.782;9.252;2022-09-29T05:24:40;7.30;;;5.60;;
438;SDS011;206;48.782;9.252;2022-09-29T05:27:05;10.30;;;6.50;;
438;SDS011;206;48.782;9.252;2022-09-29T05:29:31;8.80;;;8.30;;
438;SDS011;206;48.782;9.252;2022-09-29T05:31:56;7.97;;;6.00;;
438;SDS011;206;48.782;9.252;2022-09-29T05:34:22;9.70;;;6.00;;
438;SDS011;206;48.782;9.252;2022-09-29T05:36:47;7.63;;;5.63;;
438;SDS011;206;48.782;9.252;2022-09-29T05:39:13;9.00;;;5.70;;
438;SDS011;206;48.782;9.252;2022-09-29T05:41:39;15.03;;;6.17;;
438;SDS011;206;48.782;9.252;2022-09-29T05:44:04;6.20;;;5.40;;
438;SDS011;206;48.782;9.252;2022-09-29T05:46:30;11.50;;;6.43;;
438;SDS011;206;48.782;9.252;2022-09-29T05:48:56;5.80;;;4.90;;
438;SDS011;206;48.782;9.252;2022-09-29T05:51:24;10.67;;;6.27;;
438;SDS011;206;48.782;9.252;2022-09-29T05:53:51;12.73;;;5.60;;
438;SDS011;206;48.782;9.252;2022-09-29T05:56:18;8.37;;;6.40;;
438;SDS011;206;48.782;9.252;2022-09-29T05:58:46;17.17;;;6.37;;
438;SDS011;206;48.782;9.252;2022-09-29T06:01:13;9.03;;;6.77;;
438;SDS011;206;48.782;9.252;2022-09-29T06:03:40;13.83;;;5.87;;
438;SDS011;206;48.782;9.252;2022-09-29T06:06:17;9.80;;;7.00;;
438;SDS011;206;48.782;9.252;2022-09-29T06:08:44;7.63;;;6.80;;
438;SDS011;206;48.782;9.252;2022-09-29T06:11:13;5.80;;;5.23;;
438;SDS011;206;48.782;9.252;2022-09-29T06:13:47;8.30;;;5.40;;
438;SDS011;206;48.782;9.252;2022-09-29T06:16:15;5.30;;;5.00;;
438;SDS011;206;48.782;9.252;2022-09-29T06:18:41;7.30;;;6.60;;
438;SDS011;206;48.782;9.252;2022-09-29T06:21:08;7.77;;;6.67;;
438;SDS011;206;48.782;9.252;2022-09-29T06:23:35;5.93;;;5.63;;
438;SDS011;206;48.782;9.252;2022-09-29T06:26:02;10.10;;;6.80;;
438;SDS011;206;48.782;9.252;2022-09-29T06:28:30;11.67;;;5.87;;
438;SDS011;206;48.782;9.252;2022-09-29T06:31:06;8.03;;;5.77;;
438;SDS011;206;48.782;9.252;2022-09-29T06:33:34;9.97;;;5.43;;
438;SDS011;206;48.782;9.252;2022-09-29T06:36:02;11.37;;;5.80;;
438;SDS011;206;48.782;9.252;2022-09-29T06:38:51;9.60;;;6.77;;
438;SDS011;206;48.782;9.252;2022-09-29T06:41:16;8.13;;;5.80;;
438;SDS011;206;48.782;9.252;2022-09-29T06:43:43;6.27;;;5.83;;
438;SDS011;206;48.782;9.252;2022-09-29T06:46:08;8.03;;;5.87;;
438;SDS011;206;48.782;9.252;2022-09-29T06:48:34;9.00;;;5.50;;
438;SDS011;206;48.782;9.252;2022-09-29T06:51:00;9.50;;;6.27;;
438;SDS011;206;48.782;9.252;2022-09-29T06:53:26;6.67;;;6.27;;
438;SDS011;206;48.782;9.252;2022-09-29T06:55:52;9.83;;;5.70;;
438;SDS011;206;48.782;9.252;2022-09-29T06:58:18;9.50;;;6.20;;
438;SDS011;206;48.782;9.252;2022-09-29T07:00:44;10.50;;;5.10;;
438;SDS011;206;48.782;9.252;2022-09-29T07:03:09;8.50;;;5.80;;
438;SDS011;206;48.782;9.252;2022-09-29T07:05:35;6.37;;;5.30;;
438;SDS011;206;48.782;9.252;2022-09-29T07:08:00;7.17;;;5.97;;
438;SDS011;206;48.782;9.252;2022-09-29T07:10:27;6.20;;;5.20;;
438;SDS011;206;48.782;9.252;2022-09-29T07:12:53;9.27;;;5.97;;
438;SDS011;206;48.782;9.252;2022-09-29T07:15:19;8.93;;;6.30;;
438;SDS011;206;48.782;9.252;2022-09-29T07:17:45;7.53;;;5.90;;
438;SDS011;206;48.782;9.252;2022-09-29T07:20:10;6.33;;;6.00;;
438;SDS011;206;48.782;9.252;2022-09-29T07:22:36;5.80;;;4.57;;
438;SDS011;206;48.782;9.252;2022-09-29T07:25:01;9.53;;;5.57;;
438;SDS011;206;48.782;9.252;2022-09-29T07:27:27;8.40;;;6.03;;
438;SDS011;206;48.782;9.252;2022-09-29T07:29:53;8.17;;;5.43;;
438;SDS011;206;48.782;9.252;2022-09-29T07:32:18;6.83;;;5.27;;
438;SDS011;206;48.782;9.252;2022-09-29T07:34:44;7.97;;;5.37;;
438;SDS011;206;48.782;9.252;2022-09-29T07:37:10;10.93;;;6.43;;
438;SDS011;206;48.782;9.252;2022-09-29T07:39:36;10.17;;;5.60;;
438;SDS011;206;48.782;9.252;2022-09-29T07:42:02;8.23;;;5.97;;
438;SDS011;206;48.782;9.252;2022-09-29T07:44:28;8.60;;;5.73;;
438;SDS011;206;48.782;9.252;2022-09-29T07:46:56;6.93;;;5.50;;
438;SDS011;206;48.782;9.252;2022-09-29T07:49:21;7.17;;;5.13;;
438;SDS011;206;48.782;9.252;2022-09-29T07:51:47;8.03;;;5.60;;
438;SDS011;206;48.782;9.252;2022-09-29T07:54:13;11.53;;;5.83;;
438;SDS011;206;48.782;9.252;2022-09-29T07:56:39;10.10;;;6.27;;
438;SDS011;206;48.782;9.252;2022-09-29T07:59:05;8.17;;;5.60;;
438;SDS011;206;48.782;9.252;2022-09-29T08:01:30;11.23;;;6.70;;
438;SDS011;206;48.782;9.252;2022-09-29T08:03:57;6.23;;;4.83;;
438;SDS011;206;48.782;9.252;2022-09-29T08:06:23;7.20;;;4.60;;
438;SDS011;206;48.782;9.252;2022-09-29T08:08:50;7.47;;;5.20;;
438;SDS011;206;48.782;9.252;2022-09-29T08:11:17;5.70;;;4.90;;
438;SDS011;206;48.782;9.252;2022-09-29T08:13:44;9.23;;;5.13;;
438;SDS011;206;48.782;9.252;2022-09-29T08:16:12;9.83;;;5.93;;
438;SDS011;206;48.782;9.252;2022-09-29T08:18:38;8.17;;;5.80;;
438;SDS011;206;48.782;9.252;2022-09-29T08:21:04;9.20;;;4.97;;
438;SDS011;206;48.782;9.252;2022-09-29T08:23:34;6.10;;;4.47;;
438;SDS011;206;48.782;9.252;2022-09-29T08:26:03;9.40;;;4.43;;
438;SDS011;206;48.782;9.252;2022-09-29T08:28:32;5.37;;;4.30;;
438;SDS011;206;48.782;9.252;2022-09-29T08:31:02;5.70;;;3.67;;
438;SDS011;206;48.782;9.252;2022-09-29T08:33:32;5.63;;;4.00;;
438;SDS011;206;48.782;9.252;2022-09-29T08:35:58;4.60;;;3.67;;
438;SDS011;206;48.782;9.252;2022-09-29T08:38:25;3.77;;;3.17;;
438;SDS011;206;48.782;9.252;2022-09-29T08:40:51;6.37;;;4.10;;
438;SDS011;206;48.782;9.252;2022-09-29T08:43:25;5.00;;;4.10;;
438;SDS011;206;48.782;9.252;2022-09-29T08:45:57;5.17;;;3.87;;
438;SDS011;206;48.782;9.252;2022-09-29T08:49:01;6.60;;;3.53;;
438;SDS011;206;48.782;9.252;2022-09-29T08:51:42;4.53;;;3.50;;
438;SDS011;206;48.782;9.252;2022-09-29T08:54:19;4.63;;;4.33;;
438;SDS011;206;48.782;9.252;2022-09-29T08:56:53;7.83;;;4.73;;
438;SDS011;206;48.782;9.252;2022-09-29T08:59:19;4.53;;;4.27;;
438;SDS011;206;48.782;9.252;2022-09-29T09:18:44;4.50;;;2.87;;
438;SDS011;206;48.782;9.252;2022-09-29T09:26:34;5.80;;;2.57;;
438;SDS011;206;48.782;9.252;2022-09-29T09:29:06;3.63;;;3.30;;
438;SDS011;206;48.782;9.252;2022-09-29T09:31:40;3.00;;;2.90;;
438;SDS011;206;48.782;9.252;2022-09-29T09:34:13;8.53;;;3.00;;
438;SDS011;206;48.782;9.252;2022-09-29T09:39:32;7.37;;;3.10;;
438;SDS011;206;48.782;9.252;2022-09-29T09:42:02;3.87;;;2.60;;
438;SDS011;206;48.782;9.252;2022-09-29T09:44:41;4.27;;;2.73;;
438;SDS011;206;48.782;9.252;2022-09-29T09:47:24;3.90;;;3.70;;
438;SDS011;206;48.782;9.252;2022-09-29T09:49:56;4.33;;;3.03;;
438;SDS011;206;48.782;9.252;2022-09-29T09:52:30;4.00;;;2.70;;
438;SDS011;206;48.782;9.252;2022-09-29T09:55:12;3.70;;;2.83;;
438;SDS011;206;48.782;9.252;2022-09-29T10:02:55;4.30;;;2.53;;
438;SDS011;206;48.782;9.252;2022-09-29T10:05:29;4.20;;;2.83;;
438;SDS011;206;48.782;9.252;2022-09-29T10:08:01;2.67;;;2.20;;
438;SDS011;206;48.782;9.252;2022-09-29T10:10:28;3.23;;;2.43;;
438;SDS011;206;48.782;9.252;2022-09-29T10:13:05;3.30;;;2.60;;
438;SDS011;206;48.782;9.252;2022-09-29T10:18:35;4.53;;;2.53;;
438;SDS011;206;48.782;9.252;2022-09-29T10:21:01;8.30;;;3.83;;
438;SDS011;206;48.782;9.252;2022-09-29T10:28:27;3.80;;;3.30;;
438;SDS011;206;48.782;9.252;2022-09-29T10:31:01;2.97;;;2.10;;
438;SDS011;206;48.782;9.252;2022-09-29T10:33:26;3.97;;;3.27;;
438;SDS011;206;48.782;9.252;2022-09-29T10:36:01;5.13;;;2.57;;
438;SDS011;206;48.782;9.252;2022-09-29T10:38:31;4.27;;;1.93;;
438;SDS011;206;48.782;9.252;2022-09-29T10:40:58;4.17;;;2.27;;
438;SDS011;206;48.782;9.252;2022-09-29T10:46:03;2.87;;;2.30;;
438;SDS011;206;48.782;9.252;2022-09-29T10:48:30;3.03;;;2.63;;
438;SDS011;206;48.782;9.252;2022-09-29T10:51:03;4.70;;;1.70;;
438;SDS011;206;48.782;9.252;2022-09-29T10:53:33;3.67;;;2.20;;
438;SDS011;206;48.782;9.252;2022-09-29T10:56:17;1.83;;;1.73;;
438;SDS011;206;48.782;9.252;2022-09-29T10:58:58;7.90;;;2.77;;
438;SDS011;206;48.782;9.252;2022-09-29T11:01:26;3.00;;;1.73;;
438;SDS011;206;48.782;9.252;2022-09-29T11:03:55;2.40;;;2.07;;
438;SDS011;206;48.782;9.252;2022-09-29T11:06:28;4.07;;;3.50;;
438;SDS011;206;48.782;9.252;2022-09-29T11:08:59;6.37;;;2.10;;
438;SDS011;206;48.782;9.252;2022-09-29T11:17:20;3.30;;;1.93;;
438;SDS011;206;48.782;9.252;2022-09-29T11:19:52;2.60;;;2.13;;
438;SDS011;206;48.782;9.252;2022-09-29T11:27:54;5.67;;;2.50;;
438;SDS011;206;48.782;9.252;2022-09-29T11:36:09;3.40;;;2.30;;
438;SDS011;206;48.782;9.252;2022-09-29T11:44:01;4.90;;;2.40;;
438;SDS011;206;48.782;9.252;2022-09-29T11:49:24;2.73;;;2.23;;
438;SDS011;206;48.782;9.252;2022-09-29T11:55:04;2.93;;;1.90;;
438;SDS011;206;48.782;9.252;2022-09-29T12:00:20;3.07;;;2.17;;
438;SDS011;206;48.782;9.252;2022-09-29T12:05:49;3.60;;;1.63;;
438;SDS011;206;48.782;9.252;2022-09-29T12:16:27;9.70;;;2.30;;
438;SDS011;206;48.782;9.252;2022-09-29T12:19:02;2.80;;;1.97;;
438;SDS011;206;48.782;9.252;2022-09-29T12:21:38;5.20;;;2.00;;
438;SDS011;206;48.782;9.252;2022-09-29T12:24:09;3.60;;;1.70;;
438;SDS011;206;48.782;9.252;2022-09-29T12:26:42;3.37;;;1.70;;
438;SDS011;206;48.782;9.252;2022-09-29T12:29:25;4.80;;;1.63;;
438;SDS011;206;48.782;9.252;2022-09-29T12:32:09;4.40;;;1.63;;
438;SDS011;206;48.782;9.252;2022-09-29T12:34:58;3.50;;;1.33;;
438;SDS011;206;48.782;9.252;2022-09-29T12:40:19;3.50;;;1.30;;
438;SDS011;206;48.782;9.252;2022-09-29T12:43:01;2.37;;;1.13;;
438;SDS011;206;48.782;9.252;2022-09-29T12:57:05;2.03;;;1.20;;
438;SDS011;206;48.782;9.252;2022-09-29T13:05:20;2.97;;;1.90;;
438;SDS011;206;48.782;9.252;2022-09-29T13:30:25;2.60;;;1.60;;
438;SDS011;206;48.782;9.252;2022-09-29T13:35:48;2.10;;;1.43;;
438;SDS011;206;48.782;9.252;2022-09-29T13:38:19;2.93;;;1.10;;
438;SDS011;206;48.782;9.252;2022-09-29T13:44:01;2.60;;;1.20;;
438;SDS011;206;48.782;9.252;2022-09-29T13:54:17;4.67;;;2.10;;
438;SDS011;206;48.782;9.252;2022-09-29T13:59:40;4.53;;;1.93;;
438;SDS011;206;48.782;9.252;2022-09-29T14:02:29;2.10;;;1.47;;
438;SDS011;206;48.782;9.252;2022-09-29T14:05:27;1.87;;;1.57;;
438;SDS011;206;48.782;9.252;2022-09-29T14:15:41;5.77;;;2.03;;
438;SDS011;206;48.782;9.252;2022-09-29T14:18:14;4.40;;;2.07;;
438;SDS011;206;48.782;9.252;2022-09-29T14:20:57;3.43;;;1.77;;
438;SDS011;206;48.782;9.252;2022-09-29T14:29:27;1.97;;;1.60;;
438;SDS011;206;48.782;9.252;2022-09-29T14:31:57;4.00;;;1.50;;
438;SDS011;206;48.782;9.252;2022-09-29T14:34:26;3.10;;;2.20;;
438;SDS011;206;48.782;9.252;2022-09-29T14:36:55;3.90;;;1.77;;
438;SDS011;206;48.782;9.252;2022-09-29T14:39:22;1.70;;;1.37;;
438;SDS011;206;48.782;9.252;2022-09-29T14:41:49;2.17;;;1.37;;
438;SDS011;206;48.782;9.252;2022-09-29T14:44:25;3.10;;;1.80;;
438;SDS011;206;48.782;9.252;2022-09-29T14:47:15;2.53;;;1.80;;
438;SDS011;206;48.782;9.252;2022-09-29T14:50:29;4.10;;;2.30;;
438;SDS011;206;48.782;9.252;2022-09-29T14:53:47;6.50;;;2.20;;
438;SDS011;206;48.782;9.252;2022-09-29T14:59:42;2.40;;;1.73;;
438;SDS011;206;48.782;9.252;2022-09-29T15:04:48;2.27;;;2.10;;
438;SDS011;206;48.782;9.252;2022-09-29T15:07:16;3.63;;;1.57;;
438;SDS011;206;48.782;9.252;2022-09-29T15:09:50;4.33;;;2.47;;
438;SDS011;206;48.782;9.252;2022-09-29T15:12:25;2.80;;;1.20;;
438;SDS011;206;48.782;9.252;2022-09-29T15:14:55;3.10;;;2.17;;
438;SDS011;206;48.782;9.252;2022-09-29T15:20:14;3.00;;;2.07;;
438;SDS011;206;48.782;9.252;2022-09-29T15:25:40;3.50;;;1.90;;
438;SDS011;206;48.782;9.252;2022-09-29T15:30:45;4.27;;;1.50;;
438;SDS011;206;48.782;9.252;2022-09-29T15:33:21;5.40;;;2.07;;
438;SDS011;206;48.782;9.252;2022-09-29T15:36:36;7.13;;;2.47;;
438;SDS011;206;48.782;9.252;2022-09-29T15:38:51;2.63;;;1.93;;
438;SDS011;206;48.782;9.252;2022-09-29T15:41:19;6.10;;;3.30;;
438;SDS011;206;48.782;9.252;2022-09-29T15:49:12;3.47;;;1.70;;
438;SDS011;206;48.782;9.252;2022-09-29T15:51:39;2.90;;;2.17;;
438;SDS011;206;48.782;9.252;2022-09-29T15:54:09;3.07;;;2.17;;
438;SDS011;206;48.782;9.252;2022-09-29T15:56:37;2.60;;;2.30;;
438;SDS011;206;48.782;9.252;2022-09-29T15:59:37;7.17;;;2.60;;
438;SDS011;206;48.782;9.252;2022-09-29T16:02:34;3.00;;;1.63;;
438;SDS011;206;48.782;9.252;2022-09-29T16:05:06;9.50;;;2.23;;
438;SDS011;206;48.782;9.252;2022-09-29T16:07:38;7.87;;;1.93;;
438;SDS011;206;48.782;9.252;2022-09-29T16:10:13;2.03;;;1.50;;
438;SDS011;206;48.782;9.252;2022-09-29T16:12:48;3.27;;;2.20;;
438;SDS011;206;48.782;9.252;2022-09-29T16:15:42;7.03;;;2.30;;
438;SDS011;206;48.782;9.252;2022-09-29T16:18:32;2.30;;;2.10;;
438;SDS011;206;48.782;9.252;2022-09-29T16:20:56;3.20;;;2.30;;
438;SDS011;206;48.782;9.252;2022-09-29T16:28:59;6.50;;;4.50;;
438;SDS011;206;48.782;9.252;2022-09-29T16:31:32;4.63;;;4.33;;
438;SDS011;206;48.782;9.252;2022-09-29T16:33:58;3.73;;;2.80;;
438;SDS011;206;48.782;9.252;2022-09-29T16:36:25;4.10;;;2.20;;
438;SDS011;206;48.782;9.252;2022-09-29T16:38:56;3.10;;;1.97;;
438;SDS011;206;48.782;9.252;2022-09-29T16:44:01;2.23;;;1.40;;
438;SDS011;206;48.782;9.252;2022-09-29T16:49:37;3.70;;;2.70;;
438;SDS011;206;48.782;9.252;2022-09-29T16:54:51;3.00;;;2.07;;
438;SDS011;206;48.782;9.252;2022-09-29T16:59:50;4.60;;;2.20;;
438;SDS011;206;48.782;9.252;2022-09-29T17:02:18;3.60;;;2.10;;
438;SDS011;206;48.782;9.252;2022-09-29T17:04:44;5.50;;;2.40;;
438;SDS011;206;48.782;9.252;2022-09-29T17:07:13;7.40;;;3.20;;
438;SDS011;206;48.782;9.252;2022-09-29T17:09:42;5.43;;;2.77;;
438;SDS011;206;48.782;9.252;2022-09-29T17:12:13;3.97;;;2.00;;
438;SDS011;206;48.782;9.252;2022-09-29T17:14:40;5.33;;;2.73;;
438;SDS011;206;48.782;9.252;2022-09-29T17:17:06;4.37;;;2.63;;
438;SDS011;206;48.782;9.252;2022-09-29T17:19:37;4.20;;;2.60;;
438;SDS011;206;48.782;9.252;2022-09-29T17:22:05;9.83;;;2.83;;
438;SDS011;206;48.782;9.252;2022-09-29T17:24:44;4.63;;;3.10;;
438;SDS011;206;48.782;9.252;2022-09-29T17:27:09;3.37;;;2.93;;
438;SDS011;206;48.782;9.252;2022-09-29T17:29:53;6.33;;;3.70;;
438;SDS011;206;48.782;9.252;2022-09-29T17:32:19;5.57;;;4.83;;
438;SDS011;206;48.782;9.252;2022-09-29T17:34:44;3.90;;;3.40;;
438;SDS011;206;48.782;9.252;2022-09-29T17:37:10;4.63;;;3.10;;
438;SDS011;206;48.782;9.252;2022-09-29T17:39:36;4.70;;;3.40;;
438;SDS011;206;48.782;9.252;2022-09-29T17:42:02;6.60;;;3.57;;
438;SDS011;206;48.782;9.252;2022-09-29T17:44:27;4.00;;;3.53;;
438;SDS011;206;48.782;9.252;2022-09-29T17:46:53;3.77;;;2.20;;
438;SDS011;206;48.782;9.252;2022-09-29T17:49:18;4.27;;;2.60;;
438;SDS011;206;48.782;9.252;2022-09-29T17:51:44;6.60;;;3.20;;
438;SDS011;206;48.782;9.252;2022-09-29T17:54:10;6.10;;;3.47;;
438;SDS011;206;48.782;9.252;2022-09-29T17:56:39;8.03;;;3.93;;
438;SDS011;206;48.782;9.252;2022-09-29T17:59:08;4.23;;;3.10;;
438;SDS011;206;48.782;9.252;2022-09-29T18:01:34;5.60;;;4.33;;
438;SDS011;206;48.782;9.252;2022-09-29T18:04:01;6.47;;;3.93;;
438;SDS011;206;48.782;9.252;2022-09-29T18:06:27;7.33;;;3.90;;
438;SDS011;206;48.782;9.252;2022-09-29T18:08:53;6.90;;;4.83;;
438;SDS011;206;48.782;9.252;2022-09-29T18:11:21;5.70;;;4.27;;
438;SDS011;206;48.782;9.252;2022-09-29T18:13:48;6.67;;;4.67;;
438;SDS011;206;48.782;9.252;2022-09-29T18:16:15;5.60;;;4.50;;
438;SDS011;206;48.782;9.252;2022-09-29T18:18:43;6.60;;;5.00;;
438;SDS011;206;48.782;9.252;2022-09-29T18:21:09;5.63;;;4.00;;
438;SDS011;206;48.782;9.252;2022-09-29T18:23:35;9.40;;;5.40;;
438;SDS011;206;48.782;9.252;2022-09-29T18:26:02;6.63;;;4.30;;
438;SDS011;206;48.782;9.252;2022-09-29T18:28:29;9.13;;;5.17;;
438;SDS011;206;48.782;9.252;2022-09-29T18:31:40;5.87;;;5.17;;
438;SDS011;206;48.782;9.252;2022-09-29T18:33:44;7.10;;;5.50;;
438;SDS011;206;48.782;9.252;2022-09-29T18:36:09;8.57;;;4.70;;
438;SDS011;206;48.782;9.252;2022-09-29T18:38:36;7.70;;;4.80;;
438;SDS011;206;48.782;9.252;2022-09-29T18:41:01;9.23;;;6.43;;
438;SDS011;206;48.782;9.252;2022-09-29T18:43:27;6.17;;;5.37;;
438;SDS011;206;48.782;9.252;2022-09-29T18:45:53;6.50;;;5.30;;
438;SDS011;206;48.782;9.252;2022-09-29T18:48:20;7.53;;;5.57;;
438;SDS011;206;48.782;9.252;2022-09-29T18:50:47;10.53;;;7.23;;
438;SDS011;206;48.782;9.252;2022-09-29T18:53:15;11.43;;;7.27;;
438;SDS011;206;48.782;9.252;2022-09-29T18:55:44;10.77;;;6.97;;
438;SDS011;206;48.782;9.252;2022-09-29T18:58:13;10.80;;;7.10;;
438;SDS011;206;48.782;9.252;2022-09-29T19:00:41;8.43;;;5.53;;
438;SDS011;206;48.782;9.252;2022-09-29T19:03:09;7.40;;;6.13;;
438;SDS011;206;48.782;9.252;2022-09-29T19:05:36;8.57;;;5.50;;
438;SDS011;206;48.782;9.252;2022-09-29T19:08:06;7.83;;;6.37;;
438;SDS011;206;48.782;9.252;2022-09-29T19:10:33;11.07;;;6.27;;
438;SDS011;206;48.782;9.252;2022-09-29T19:13:04;6.50;;;5.03;;
438;SDS011;206;48.782;9.252;2022-09-29T19:15:36;6.60;;;5.03;;
438;SDS011;206;48.782;9.252;2022-09-29T19:18:03;6.20;;;5.37;;
438;SDS011;206;48.782;9.252;2022-09-29T19:20:30;6.20;;;4.13;;
438;SDS011;206;48.782;9.252;2022-09-29T19:22:56;7.27;;;4.37;;
438;SDS011;206;48.782;9.252;2022-09-29T19:25:27;6.60;;;5.00;;
438;SDS011;206;48.782;9.252;2022-09-29T19:27:55;6.57;;;4.80;;
438;SDS011;206;48.782;9.252;2022-09-29T19:30:21;5.60;;;4.30;;
438;SDS011;206;48.782;9.252;2022-09-29T19:32:48;8.53;;;4.50;;
438;SDS011;206;48.782;9.252;2022-09-29T19:35:15;7.53;;;5.40;;
438;SDS011;206;48.782;9.252;2022-09-29T19:37:42;8.83;;;6.00;;
438;SDS011;206;48.782;9.252;2022-09-29T19:40:09;9.60;;;5.53;;